createdAt,value
2018-03-26T00:00:06.319Z,25.70
2018-03-26T00:02:35.655Z,25.60
2018-03-26T00:05:04.802Z,25.60
2018-03-26T00:07:34.839Z,25.50
2018-03-26T00:10:04.228Z,25.50
2018-03-26T00:12:33.334Z,25.50
2018-03-26T00:15:03.174Z,25.30
2018-03-26T00:17:32.451Z,25.30
2018-03-26T00:20:01.448Z,25.20
2018-03-26T00:22:31.490Z,25.10
2018-03-26T00:25:00.560Z,25.10
2018-03-26T00:27:29.862Z,25.00
2018-03-26T00:29:58.862Z,24.80
2018-03-26T00:32:28.090Z,24.80
2018-03-26T00:34:57.243Z,24.80
2018-03-26T00:37:26.310Z,24.80
2018-03-26T00:39:56.267Z,24.80
2018-03-26T00:42:25.571Z,24.80
2018-03-26T00:44:55.574Z,24.80
2018-03-26T00:47:24.952Z,24.80
2018-03-26T00:49:54.086Z,24.80
2018-03-26T00:52:23.395Z,24.80
2018-03-26T00:54:53.087Z,24.80
2018-03-26T00:57:23.015Z,24.80
2018-03-26T00:59:52.115Z,24.80
2018-03-26T01:02:21.423Z,24.70
2018-03-26T01:04:51.394Z,24.70
2018-03-26T01:07:20.715Z,24.70
2018-03-26T01:09:49.834Z,24.70
2018-03-26T01:12:19.844Z,24.70
2018-03-26T01:14:49.011Z,24.70
2018-03-26T01:17:18.278Z,24.60
2018-03-26T01:19:47.351Z,24.60
2018-03-26T01:22:16.646Z,24.60
2018-03-26T01:24:45.651Z,24.60
2018-03-26T01:27:15.618Z,24.60
2018-03-26T01:29:44.758Z,24.60
2018-03-26T01:32:14.063Z,24.70
2018-03-26T01:34:43.162Z,24.70
2018-03-26T01:37:13.306Z,24.70
2018-03-26T01:39:42.298Z,24.60
2018-03-26T01:42:11.399Z,24.70
2018-03-26T01:44:40.391Z,24.60
2018-03-26T01:47:09.671Z,24.60
2018-03-26T01:49:39.642Z,24.70
2018-03-26T01:52:08.915Z,24.60
2018-03-26T01:54:38.008Z,24.70
2018-03-26T01:57:07.187Z,24.60
2018-03-26T01:59:36.786Z,24.50
2018-03-26T02:02:06.139Z,24.50
2018-03-26T02:04:36.007Z,24.60
2018-03-26T02:07:05.237Z,24.50
2018-03-26T02:09:34.137Z,24.50
2018-03-26T02:12:04.146Z,24.60
2018-03-26T02:14:33.243Z,24.50
2018-03-26T02:17:02.419Z,24.60
2018-03-26T02:19:31.411Z,24.50
2018-03-26T02:22:00.615Z,24.50
2018-03-26T02:24:29.639Z,24.60
2018-03-26T02:26:58.735Z,24.50
2018-03-26T02:29:27.727Z,24.50
2018-03-26T02:31:56.752Z,24.50
2018-03-26T02:34:25.712Z,24.50
2018-03-26T02:36:54.815Z,24.50
2018-03-26T02:39:23.967Z,24.50
2018-03-26T02:41:53.903Z,24.50
2018-03-26T02:44:23.019Z,24.50
2018-03-26T02:46:52.190Z,24.60
2018-03-26T02:49:21.290Z,24.60
2018-03-26T02:51:50.430Z,24.70
2018-03-26T02:54:19.415Z,24.80
2018-03-26T02:56:48.491Z,24.80
2018-03-26T02:59:17.508Z,24.90
2018-03-26T03:01:46.666Z,24.80
2018-03-26T03:04:15.651Z,25.00
2018-03-26T03:06:44.727Z,25.10
2018-03-26T03:09:14.502Z,25.30
2018-03-26T03:11:43.779Z,25.30
2018-03-26T03:14:13.779Z,25.70
2018-03-26T03:16:43.099Z,25.70
2018-03-26T03:19:12.187Z,25.90
2018-03-26T03:21:41.493Z,25.90
2018-03-26T03:24:10.596Z,26.20
2018-03-26T03:26:39.790Z,26.20
2018-03-26T03:29:08.719Z,26.50
2018-03-26T03:31:37.844Z,26.60
2018-03-26T03:34:06.675Z,26.70
2018-03-26T03:36:35.907Z,26.70
2018-03-26T03:39:05.211Z,26.90
2018-03-26T03:41:34.780Z,27.00
2018-03-26T03:44:03.907Z,27.00
2018-03-26T03:46:33.182Z,27.00
2018-03-26T03:49:02.174Z,27.20
2018-03-26T03:51:32.035Z,27.40
2018-03-26T03:54:01.246Z,27.50
2018-03-26T03:56:30.588Z,27.70
2018-03-26T03:58:59.690Z,27.80
2018-03-26T04:01:29.507Z,27.90
2018-03-26T04:03:59.318Z,27.70
2018-03-26T04:06:29.026Z,27.90
2018-03-26T04:08:57.947Z,27.90
2018-03-26T04:11:27.084Z,28.10
2018-03-26T04:13:56.425Z,28.00
2018-03-26T04:16:26.546Z,28.50
2018-03-26T04:18:55.571Z,28.40
2018-03-26T04:21:24.668Z,28.50
2018-03-26T04:23:53.662Z,28.70
2018-03-26T04:26:22.715Z,29.00
2018-03-26T04:28:51.806Z,29.10
2018-03-26T04:31:20.814Z,29.50
2018-03-26T04:33:49.794Z,29.60
2018-03-26T04:36:19.833Z,30.00
2018-03-26T04:38:49.934Z,30.30
2018-03-26T04:41:19.178Z,30.30
2018-03-26T04:43:48.376Z,30.70
2018-03-26T04:46:17.655Z,30.90
2018-03-26T04:48:47.627Z,32.00
2018-03-26T04:51:16.900Z,32.00
2018-03-26T04:53:45.995Z,33.20
2018-03-26T04:56:15.271Z,34.10
2018-03-26T04:58:44.267Z,35.40
2018-03-26T05:01:13.492Z,36.20
2018-03-26T05:03:42.383Z,36.20
2018-03-26T05:06:11.452Z,36.80
2018-03-26T05:08:41.363Z,36.40
2018-03-26T05:11:10.692Z,36.40
2018-03-26T05:13:39.763Z,36.30
2018-03-26T05:16:08.895Z,36.00
2018-03-26T05:18:37.892Z,35.20
2018-03-26T05:21:07.021Z,34.80
2018-03-26T05:23:37.514Z,35.60
2018-03-26T05:26:06.611Z,35.60
2018-03-26T05:28:35.607Z,36.70
2018-03-26T05:31:04.676Z,36.70
2018-03-26T05:33:34.619Z,38.40
2018-03-26T05:36:03.910Z,38.30
2018-03-26T05:38:32.982Z,39.50
2018-03-26T05:41:02.194Z,39.00
2018-03-26T05:43:31.178Z,38.70
2018-03-26T05:46:01.326Z,37.00
2018-03-26T05:48:30.425Z,37.00
2018-03-26T05:50:59.703Z,36.80
2018-03-26T05:53:29.675Z,36.60
2018-03-26T05:55:58.943Z,36.60
2018-03-26T05:58:28.015Z,36.40
2018-03-26T06:00:57.214Z,36.30
2018-03-26T06:03:27.227Z,36.10
2018-03-26T06:05:57.012Z,36.20
2018-03-26T06:08:25.970Z,36.10
2018-03-26T06:10:55.020Z,35.90
2018-03-26T06:13:23.958Z,36.60
2018-03-26T06:15:54.047Z,37.60
2018-03-26T06:18:23.247Z,37.50
2018-03-26T06:20:52.579Z,39.00
2018-03-26T06:23:21.731Z,39.80
2018-03-26T06:25:50.942Z,40.60
2018-03-26T06:28:20.027Z,40.20
2018-03-26T06:30:49.243Z,39.90
2018-03-26T06:33:18.603Z,39.70
2018-03-26T06:35:47.871Z,39.20
2018-03-26T06:38:22.343Z,38.60
2018-03-26T06:40:51.875Z,38.10
2018-03-26T06:43:21.003Z,37.70
2018-03-26T06:45:50.283Z,37.50
2018-03-26T06:48:19.506Z,37.00
2018-03-26T06:50:48.607Z,37.00
2018-03-26T06:53:18.220Z,36.80
2018-03-26T06:55:47.241Z,36.60
2018-03-26T06:58:16.330Z,36.30
2018-03-26T07:00:46.252Z,36.20
2018-03-26T07:03:16.311Z,36.20
2018-03-26T07:05:45.547Z,36.10
2018-03-26T07:08:14.535Z,36.10
2018-03-26T07:10:43.734Z,36.10
2018-03-26T07:13:12.695Z,36.00
2018-03-26T07:15:42.499Z,36.10
2018-03-26T07:18:11.707Z,36.20
2018-03-26T07:20:41.523Z,36.50
2018-03-26T07:23:10.403Z,36.40
2018-03-26T07:25:39.514Z,36.60
2018-03-26T07:28:08.439Z,36.70
2018-03-26T07:30:37.567Z,36.70
2018-03-26T07:33:06.483Z,36.80
2018-03-26T07:35:35.655Z,36.70
2018-03-26T07:38:04.574Z,36.80
2018-03-26T07:40:33.751Z,36.60
2018-03-26T07:43:02.663Z,36.60
2018-03-26T07:45:32.623Z,36.90
2018-03-26T07:48:01.696Z,36.90
2018-03-26T07:50:31.563Z,36.30
2018-03-26T07:53:00.767Z,36.30
2018-03-26T07:55:30.583Z,37.60
2018-03-26T07:57:59.655Z,37.60
2018-03-26T08:00:28.911Z,39.10
2018-03-26T08:02:57.798Z,39.80
2018-03-26T08:05:26.766Z,40.00
2018-03-26T08:07:55.731Z,40.70
2018-03-26T08:10:24.692Z,41.60
2018-03-26T08:12:53.620Z,40.70
2018-03-26T08:15:22.811Z,39.20
2018-03-26T08:17:51.834Z,38.80
2018-03-26T08:20:20.939Z,38.40
2018-03-26T08:22:49.903Z,38.30
2018-03-26T08:25:19.035Z,38.20
2018-03-26T08:27:47.986Z,37.60
2018-03-26T08:30:17.118Z,37.20
2018-03-26T08:32:46.083Z,36.60
2018-03-26T08:35:15.075Z,36.30
2018-03-26T08:37:44.074Z,36.20
2018-03-26T08:40:13.240Z,36.20
2018-03-26T08:42:43.771Z,36.20
2018-03-26T08:45:12.902Z,36.10
2018-03-26T08:47:41.911Z,35.70
2018-03-26T08:50:11.117Z,35.40
2018-03-26T08:52:40.363Z,35.20
2018-03-26T08:55:09.566Z,35.40
2018-03-26T08:57:40.322Z,35.70
2018-03-26T09:00:09.327Z,35.70
2018-03-26T09:02:38.523Z,35.70
2018-03-26T09:05:07.515Z,35.70
2018-03-26T09:07:36.483Z,35.70
2018-03-26T09:10:05.643Z,35.80
2018-03-26T09:12:34.603Z,35.80
2018-03-26T09:15:03.600Z,35.80
2018-03-26T09:17:32.702Z,35.90
2018-03-26T09:20:01.942Z,35.90
2018-03-26T09:22:30.911Z,36.00
2018-03-26T09:24:59.883Z,35.90
2018-03-26T09:27:28.843Z,35.80
2018-03-26T09:29:58.008Z,35.80
2018-03-26T09:32:27.883Z,35.60
2018-03-26T09:34:57.058Z,35.50
2018-03-26T09:37:26.651Z,35.60
2018-03-26T09:39:55.863Z,35.50
2018-03-26T09:42:24.747Z,35.50
2018-03-26T09:44:53.852Z,35.50
2018-03-26T09:47:23.691Z,35.30
2018-03-26T09:49:52.864Z,35.30
2018-03-26T09:52:21.863Z,35.40
2018-03-26T09:54:51.094Z,35.30
2018-03-26T09:57:20.346Z,35.50
2018-03-26T09:59:49.518Z,35.40
2018-03-26T10:02:18.587Z,35.30
2018-03-26T10:04:47.680Z,35.30
2018-03-26T10:07:16.530Z,35.30
2018-03-26T10:09:45.606Z,35.10
2018-03-26T10:12:14.528Z,35.00
2018-03-26T10:14:43.695Z,35.10
2018-03-26T10:17:12.659Z,35.20
2018-03-26T10:19:42.768Z,35.10
2018-03-26T10:22:11.862Z,35.10
2018-03-26T10:24:40.970Z,35.20
2018-03-26T10:27:10.062Z,35.10
2018-03-26T10:29:39.331Z,35.20
2018-03-26T10:32:09.208Z,35.00
2018-03-26T10:34:38.478Z,35.00
2018-03-26T10:37:07.577Z,35.00
2018-03-26T10:39:36.747Z,35.00
2018-03-26T10:42:05.844Z,35.10
2018-03-26T10:44:35.963Z,35.00
2018-03-26T10:47:05.055Z,35.00
2018-03-26T10:49:34.909Z,34.90
2018-03-26T10:52:03.895Z,34.90
2018-03-26T10:54:32.995Z,34.90
2018-03-26T10:57:02.059Z,34.80
2018-03-26T10:59:31.327Z,34.70
2018-03-26T11:02:00.239Z,34.70
2018-03-26T11:04:29.347Z,34.70
2018-03-26T11:06:59.190Z,34.60
2018-03-26T11:09:28.467Z,34.60
2018-03-26T11:11:57.564Z,34.60
2018-03-26T11:14:27.609Z,34.50
2018-03-26T11:16:56.602Z,34.50
2018-03-26T11:19:25.880Z,34.50
2018-03-26T11:21:55.079Z,34.40
2018-03-26T11:24:24.239Z,34.50
2018-03-26T11:26:54.090Z,34.40
2018-03-26T11:29:23.403Z,34.40
2018-03-26T11:31:52.491Z,34.30
2018-03-26T11:34:21.622Z,34.40
2018-03-26T11:36:50.683Z,34.50
2018-03-26T11:39:19.712Z,34.30
2018-03-26T11:41:48.749Z,34.30
2018-03-26T11:44:18.071Z,34.40
2018-03-26T11:46:47.055Z,34.30
2018-03-26T11:49:16.991Z,34.40
2018-03-26T11:51:46.083Z,34.40
2018-03-26T11:54:15.107Z,34.30
2018-03-26T11:56:44.171Z,34.30
2018-03-26T11:59:13.643Z,34.20
2018-03-26T12:01:42.498Z,34.10
2018-03-26T12:04:11.626Z,34.20
2018-03-26T12:06:41.479Z,34.10
2018-03-26T12:09:11.291Z,34.00
2018-03-26T12:11:41.135Z,33.90
2018-03-26T12:14:10.411Z,33.90
2018-03-26T12:16:39.507Z,33.90
2018-03-26T12:19:09.551Z,33.80
2018-03-26T12:21:38.515Z,33.80
2018-03-26T12:24:19.377Z,33.80
2018-03-26T12:26:48.752Z,33.70
2018-03-26T12:29:30.178Z,33.50
2018-03-26T12:31:59.274Z,33.50
2018-03-26T12:34:40.954Z,33.40
2018-03-26T12:37:10.847Z,33.40
2018-03-26T12:39:40.291Z,33.30
2018-03-26T12:42:10.367Z,33.20
2018-03-26T12:44:51.167Z,33.20
2018-03-26T12:47:20.058Z,33.20
2018-03-26T12:49:49.171Z,33.10
2018-03-26T12:52:29.823Z,33.00
2018-03-26T12:55:00.019Z,32.90
2018-03-26T12:57:41.430Z,32.90
2018-03-26T13:00:11.321Z,32.90
2018-03-26T13:02:42.296Z,32.90
2018-03-26T13:05:11.639Z,32.90
2018-03-26T13:07:40.727Z,32.80
2018-03-26T13:10:10.003Z,32.70
2018-03-26T13:12:39.134Z,32.70
2018-03-26T13:15:08.331Z,32.70
2018-03-26T13:17:38.211Z,32.60
2018-03-26T13:20:07.515Z,32.50
2018-03-26T13:22:36.511Z,32.60
2018-03-26T13:25:05.607Z,32.50
2018-03-26T13:27:35.584Z,32.40
2018-03-26T13:30:05.234Z,32.40
2018-03-26T13:32:35.207Z,32.30
2018-03-26T13:35:04.488Z,32.20
2018-03-26T13:37:33.647Z,32.30
2018-03-26T13:40:02.852Z,32.30
2018-03-26T13:42:31.946Z,32.30
2018-03-26T13:45:02.503Z,32.20
2018-03-26T13:47:31.598Z,32.20
2018-03-26T13:50:00.881Z,32.10
2018-03-26T13:52:29.975Z,32.10
2018-03-26T13:54:59.203Z,32.00
2018-03-26T13:57:28.095Z,31.90
2018-03-26T13:59:57.295Z,31.80
2018-03-26T14:02:27.388Z,31.60
2018-03-26T14:04:56.683Z,31.60
2018-03-26T14:07:25.706Z,31.60
2018-03-26T14:10:06.309Z,31.50
2018-03-26T14:12:46.692Z,31.40
2018-03-26T14:15:28.077Z,31.20
2018-03-26T14:18:02.722Z,31.10
2018-03-26T14:20:32.123Z,31.10
2018-03-26T14:23:01.231Z,31.10
2018-03-26T14:25:30.222Z,31.00
2018-03-26T14:27:59.311Z,31.00
2018-03-26T14:30:29.355Z,30.90
2018-03-26T14:32:58.451Z,30.90
2018-03-26T14:35:42.676Z,30.80
2018-03-26T14:38:11.798Z,30.80
2018-03-26T14:40:40.871Z,30.80
2018-03-26T14:43:09.990Z,30.70
2018-03-26T14:45:39.309Z,30.60
2018-03-26T14:48:08.298Z,30.50
2018-03-26T14:50:37.427Z,30.50
2018-03-26T14:53:06.386Z,30.50
2018-03-26T14:55:35.489Z,30.40
2018-03-26T14:58:04.480Z,30.20
2018-03-26T15:00:33.607Z,30.20
2018-03-26T15:03:02.674Z,30.20
2018-03-26T15:05:31.803Z,30.20
2018-03-26T15:08:00.763Z,30.20
2018-03-26T15:10:29.962Z,30.10
2018-03-26T15:12:58.964Z,30.00
2018-03-26T15:15:28.087Z,29.90
2018-03-26T15:17:57.930Z,29.90
2018-03-26T15:20:27.261Z,29.90
2018-03-26T15:22:56.341Z,30.00
2018-03-26T15:25:25.639Z,30.00
2018-03-26T15:27:55.551Z,29.90
2018-03-26T15:30:25.299Z,29.90
2018-03-26T15:32:54.295Z,29.90
2018-03-26T15:35:23.492Z,29.90
2018-03-26T15:37:52.352Z,29.80
2018-03-26T15:40:21.478Z,29.80
2018-03-26T15:42:50.538Z,29.80
2018-03-26T15:45:19.703Z,29.80
2018-03-26T15:47:48.670Z,29.80
2018-03-26T15:50:18.683Z,29.80
2018-03-26T15:52:47.756Z,29.80
2018-03-26T15:55:16.952Z,29.70
2018-03-26T15:57:45.974Z,29.70
2018-03-26T16:00:15.175Z,29.70
2018-03-26T16:02:49.675Z,29.70
2018-03-26T16:05:19.077Z,29.60
2018-03-26T16:07:48.171Z,29.60
2018-03-26T16:10:17.371Z,29.40
2018-03-26T16:12:47.342Z,29.50
2018-03-26T16:15:16.610Z,29.50
2018-03-26T16:17:45.683Z,29.50
2018-03-26T16:20:15.864Z,29.50
2018-03-26T16:22:45.109Z,29.50
2018-03-26T16:25:14.915Z,29.40
2018-03-26T16:27:44.759Z,29.40
2018-03-26T16:30:14.035Z,29.40
2018-03-26T16:32:43.132Z,29.40
2018-03-26T16:35:13.175Z,29.30
2018-03-26T16:37:42.446Z,29.30
2018-03-26T16:40:11.754Z,29.30
2018-03-26T16:42:45.755Z,29.20
2018-03-26T16:45:14.967Z,29.20
2018-03-26T16:47:44.353Z,29.20
2018-03-26T16:50:13.843Z,29.10
2018-03-26T16:52:42.716Z,29.10
2018-03-26T16:55:12.543Z,28.90
2018-03-26T16:57:41.562Z,28.90
2018-03-26T17:00:11.596Z,28.80
2018-03-26T17:02:40.691Z,28.80
2018-03-26T17:05:09.923Z,28.80
2018-03-26T17:07:39.079Z,28.80
2018-03-26T17:10:09.111Z,28.70
2018-03-26T17:12:39.082Z,28.70
2018-03-26T17:15:08.354Z,28.70
2018-03-26T17:17:37.449Z,28.70
2018-03-26T17:20:06.723Z,28.60
2018-03-26T17:22:35.823Z,28.60
2018-03-26T17:25:05.939Z,28.50
2018-03-26T17:27:35.166Z,28.50
2018-03-26T17:30:04.428Z,28.50
2018-03-26T17:32:34.563Z,28.40
2018-03-26T17:35:03.732Z,28.40
2018-03-26T17:37:32.855Z,28.40
2018-03-26T17:40:02.206Z,28.30
2018-03-26T17:42:32.244Z,28.30
2018-03-26T17:45:02.063Z,28.20
2018-03-26T17:47:31.299Z,28.20
2018-03-26T17:50:00.583Z,28.20
2018-03-26T17:52:35.360Z,28.20
2018-03-26T17:55:05.556Z,28.20
2018-03-26T17:57:34.543Z,28.20
2018-03-26T18:00:03.881Z,28.20
2018-03-26T18:02:33.860Z,28.10
2018-03-26T18:05:03.839Z,28.10
2018-03-26T18:07:33.067Z,28.00
2018-03-26T18:10:02.611Z,28.00
2018-03-26T18:12:31.688Z,28.00
2018-03-26T18:15:01.907Z,28.00
2018-03-26T18:17:31.035Z,27.90
2018-03-26T18:20:00.317Z,27.90
2018-03-26T18:22:29.407Z,27.90
2018-03-26T18:24:58.534Z,27.80
2018-03-26T18:27:27.599Z,27.80
2018-03-26T18:29:57.643Z,27.80
2018-03-26T18:32:26.711Z,27.70
2018-03-26T18:34:55.947Z,27.70
2018-03-26T18:37:25.990Z,27.70
2018-03-26T18:39:55.982Z,27.70
2018-03-26T18:42:24.931Z,27.60
2018-03-26T18:44:54.966Z,27.60
2018-03-26T18:47:24.066Z,27.50
2018-03-26T18:49:53.259Z,27.50
2018-03-26T18:52:23.171Z,27.50
2018-03-26T18:54:53.055Z,27.50
2018-03-26T18:57:22.104Z,27.50
2018-03-26T18:59:51.182Z,27.40
2018-03-26T19:02:20.543Z,27.40
2018-03-26T19:04:50.463Z,27.40
2018-03-26T19:07:19.615Z,27.30
2018-03-26T19:09:48.866Z,27.30
2018-03-26T19:12:18.159Z,27.40
2018-03-26T19:14:48.084Z,27.30
2018-03-26T19:17:17.102Z,27.30
2018-03-26T19:19:47.243Z,27.30
2018-03-26T19:22:16.331Z,27.20
2018-03-26T19:24:45.496Z,27.20
2018-03-26T19:27:14.455Z,27.20
2018-03-26T19:29:43.583Z,27.20
2018-03-26T19:32:12.505Z,27.30
2018-03-26T19:34:41.678Z,27.20
2018-03-26T19:37:10.595Z,27.20
2018-03-26T19:39:39.703Z,27.20
2018-03-26T19:42:09.443Z,27.20
2018-03-26T19:44:38.719Z,27.20
2018-03-26T19:47:07.823Z,27.20
2018-03-26T19:49:37.015Z,27.20
2018-03-26T19:52:06.987Z,27.20
2018-03-26T19:54:36.154Z,27.20
2018-03-26T19:57:05.223Z,27.10
2018-03-26T19:59:34.894Z,27.10
2018-03-26T20:02:04.647Z,27.10
2018-03-26T20:04:33.950Z,27.10
2018-03-26T20:07:03.051Z,27.10
2018-03-26T20:09:32.275Z,27.10
2018-03-26T20:12:02.044Z,27.00
2018-03-26T20:14:31.458Z,27.00
2018-03-26T20:17:01.264Z,27.10
2018-03-26T20:19:31.303Z,27.00
2018-03-26T20:22:00.214Z,27.00
2018-03-26T20:24:30.923Z,26.90
2018-03-26T20:27:00.899Z,26.90
2018-03-26T20:29:30.166Z,26.90
2018-03-26T20:32:00.099Z,26.80
2018-03-26T20:34:30.180Z,26.80
2018-03-26T20:36:59.275Z,26.70
2018-03-26T20:39:28.539Z,26.80
2018-03-26T20:41:57.459Z,26.70
2018-03-26T20:44:26.728Z,26.70
2018-03-26T20:46:55.955Z,26.70
2018-03-26T20:49:25.819Z,26.70
2018-03-26T20:51:54.880Z,26.70
2018-03-26T20:54:24.999Z,26.70
2018-03-26T20:56:54.095Z,26.70
2018-03-26T20:59:24.280Z,26.70
2018-03-26T21:01:53.420Z,26.70
2018-03-26T21:04:22.723Z,26.70
2018-03-26T21:06:52.724Z,26.60
2018-03-26T21:09:22.688Z,26.50
2018-03-26T21:11:51.683Z,26.50
2018-03-26T21:14:20.951Z,26.50
2018-03-26T21:16:49.935Z,26.40
2018-03-26T21:19:19.967Z,26.50
2018-03-26T21:21:49.943Z,26.40
2018-03-26T21:24:19.179Z,26.40
2018-03-26T21:26:48.307Z,26.40
2018-03-26T21:29:17.584Z,26.40
2018-03-26T21:31:46.675Z,26.40
2018-03-26T21:34:16.795Z,26.30
2018-03-26T21:36:46.603Z,26.20
2018-03-26T21:39:16.630Z,26.20
2018-03-26T21:41:46.609Z,26.20
2018-03-26T21:44:15.875Z,26.20
2018-03-26T21:46:44.972Z,26.20
2018-03-26T21:49:14.247Z,26.10
2018-03-26T21:51:44.223Z,26.10
2018-03-26T21:54:13.491Z,26.10
2018-03-26T21:56:42.563Z,26.10
2018-03-26T21:59:12.744Z,26.10
2018-03-26T22:01:41.885Z,26.10
2018-03-26T22:04:11.183Z,26.10
2018-03-26T22:06:40.284Z,26.00
2018-03-26T22:09:09.638Z,26.00
2018-03-26T22:11:39.627Z,25.80
2018-03-26T22:14:09.011Z,25.80
2018-03-26T22:16:38.310Z,25.70
2018-03-26T22:19:08.351Z,25.50
2018-03-26T22:21:37.447Z,25.50
2018-03-26T22:24:06.735Z,25.50
2018-03-26T22:26:35.823Z,25.50
2018-03-26T22:29:05.052Z,25.40
2018-03-26T22:31:35.039Z,25.30
2018-03-26T22:34:04.343Z,25.20
2018-03-26T22:36:34.343Z,25.20
2018-03-26T22:39:04.548Z,25.10
2018-03-26T22:41:34.498Z,25.00
2018-03-26T22:44:04.683Z,24.90
2018-03-26T22:46:33.815Z,24.90
2018-03-26T22:49:03.123Z,24.90
2018-03-26T22:51:32.218Z,24.80
2018-03-26T22:54:01.450Z,24.70
2018-03-26T22:56:31.327Z,24.60
2018-03-26T22:59:00.659Z,24.60
2018-03-26T23:01:29.664Z,24.50
2018-03-26T23:03:58.954Z,24.50
2018-03-26T23:06:28.135Z,24.50
2018-03-26T23:08:58.246Z,24.30
2018-03-26T23:11:27.343Z,24.30
2018-03-26T23:13:56.650Z,24.20
2018-03-26T23:16:26.622Z,24.20
2018-03-26T23:18:56.074Z,24.10
2018-03-26T23:21:26.074Z,24.10
2018-03-26T23:23:56.035Z,24.00
2018-03-26T23:26:25.038Z,24.00
2018-03-26T23:28:54.162Z,24.10
2018-03-26T23:31:23.018Z,24.00
2018-03-26T23:33:52.157Z,23.90
2018-03-26T23:36:21.197Z,23.90
2018-03-26T23:38:50.446Z,23.90
2018-03-26T23:41:19.362Z,23.90
2018-03-26T23:43:48.488Z,23.90
2018-03-26T23:46:17.459Z,23.90
2018-03-26T23:48:46.558Z,23.80
2018-03-26T23:51:16.408Z,23.70
2018-03-26T23:53:45.683Z,23.70
2018-03-26T23:56:14.574Z,23.70
2018-03-26T23:58:44.691Z,23.60
